Terminal Aerodrome Forecast
Issued by NWS

Home | Current Version | Previous Version | Text Only | Print | Product List | Glossary On
Versions: 1 2 3 4 5 6 7 8 9 10 11 12 13 14 15 16 17 18 19
000
FTUS46 KLOX 061100
TAFSBA
TAF
KSBA 061128Z 0612/0712 VRB03KT P6SM BKN200
     FM061300 VRB03KT P6SM SCT025 OVC035
     FM061900 19006KT P6SM BKN035
     FM062200 26012KT P6SM SCT040
     FM070300 VRB03KT P6SM SKC
     FM070900 VRB03KT P6SM SCT025 BKN040=

USA.gov is the U.S. government's official web portal to all federal, state and local government web resources and services.